createdAt,value
2018-06-08T00:00:20.263Z,101049.96
2018-06-08T00:02:49.019Z,101047.11
2018-06-08T00:05:18.370Z,101054.48
2018-06-08T00:07:47.076Z,101045.27
2018-06-08T00:10:18.906Z,101045.45
2018-06-08T00:12:47.752Z,101051.10
2018-06-08T00:15:16.718Z,101042.60
2018-06-08T00:17:45.467Z,101043.05
2018-06-08T00:20:14.883Z,101041.69
2018-06-08T00:22:43.880Z,101045.47
2018-06-08T00:25:12.818Z,101035.59
2018-06-08T00:27:41.509Z,101040.48
2018-06-08T00:30:10.168Z,101038.30
2018-06-08T00:32:39.006Z,101036.89
2018-06-08T00:35:07.771Z,101033.34
2018-06-08T00:37:36.764Z,101031.66
2018-06-08T00:40:05.527Z,101037.92
2018-06-08T00:42:34.562Z,101041.34
2018-06-08T00:45:03.352Z,101038.31
2018-06-08T00:47:32.099Z,101036.06
2018-06-08T00:50:00.811Z,101036.86
2018-06-08T00:52:29.499Z,101042.99
2018-06-08T00:55:00.120Z,101040.48
2018-06-08T00:57:29.122Z,101041.48
2018-06-08T00:59:58.095Z,101037.63
2018-06-08T01:02:26.799Z,101037.00
2018-06-08T01:04:55.689Z,101034.48
2018-06-08T01:07:24.357Z,101040.37
2018-06-08T01:09:53.625Z,101033.59
2018-06-08T01:12:22.563Z,101041.73
2018-06-08T01:14:51.555Z,101039.69
2018-06-08T01:17:20.594Z,101032.81
2018-06-08T01:19:49.613Z,101037.58
2018-06-08T01:22:18.444Z,101034.83
2018-06-08T01:24:47.363Z,101035.30
2018-06-08T01:27:16.730Z,101026.23
2018-06-08T01:29:45.365Z,101027.00
2018-06-08T01:32:14.320Z,101030.87
2018-06-08T01:34:43.397Z,101023.52
2018-06-08T01:37:12.813Z,101021.20
2018-06-08T01:39:41.705Z,101018.92
2018-06-08T01:42:10.332Z,101021.83
2018-06-08T01:44:39.242Z,101031.78
2018-06-08T01:47:07.874Z,101025.50
2018-06-08T01:49:36.916Z,101023.13
2018-06-08T01:52:06.572Z,101028.25
2018-06-08T01:54:36.478Z,101028.14
2018-06-08T01:57:05.455Z,101029.66
2018-06-08T01:59:35.855Z,101027.44
2018-06-08T02:02:04.803Z,101026.31
2018-06-08T02:04:33.500Z,101029.86
2018-06-08T02:07:02.634Z,101025.19
2018-06-08T02:09:31.658Z,101023.80
2018-06-08T02:12:00.375Z,101025.61
2018-06-08T02:14:29.103Z,101027.20
2018-06-08T02:16:57.786Z,101021.97
2018-06-08T02:19:26.473Z,101027.16
2018-06-08T02:21:55.129Z,101024.68
2018-06-08T02:24:23.889Z,101027.32
2018-06-08T02:26:52.603Z,101023.98
2018-06-08T02:29:21.297Z,101026.95
2018-06-08T02:31:50.183Z,101023.64
2018-06-08T02:34:18.803Z,101031.17
2018-06-08T02:36:48.142Z,101019.16
2018-06-08T02:39:16.816Z,101017.21
2018-06-08T02:41:45.520Z,101017.21
2018-06-08T02:44:14.573Z,101019.16
2018-06-08T02:46:46.127Z,101014.66
2018-06-08T02:49:14.789Z,101017.10
2018-06-08T02:51:43.451Z,101015.90
2018-06-08T02:54:12.376Z,101013.19
2018-06-08T02:56:42.113Z,101016.95
2018-06-08T02:59:10.823Z,101018.20
2018-06-08T03:01:39.666Z,101023.09
2018-06-08T03:04:08.649Z,101018.80
2018-06-08T03:06:38.006Z,101021.95
2018-06-08T03:09:07.905Z,101022.27
2018-06-08T03:11:36.794Z,101023.50
2018-06-08T03:14:05.491Z,101014.77
2018-06-08T03:16:34.171Z,101019.59
2018-06-08T03:19:02.977Z,101014.95
2018-06-08T03:21:32.079Z,101015.70
2018-06-08T03:24:00.940Z,101017.59
2018-06-08T03:26:29.584Z,101016.53
2018-06-08T03:28:58.597Z,101023.83
2018-06-08T03:31:28.176Z,101016.77
2018-06-08T03:33:56.804Z,101015.86
2018-06-08T03:36:25.501Z,101019.17
2018-06-08T03:38:54.139Z,101017.21
2018-06-08T03:41:23.060Z,101021.77
2018-06-08T03:43:52.445Z,101020.86
2018-06-08T03:46:21.492Z,101017.84
2018-06-08T03:48:50.449Z,101016.50
2018-06-08T03:51:19.416Z,101016.72
2018-06-08T03:53:48.113Z,101013.48
2018-06-08T03:56:16.868Z,101013.86
2018-06-08T03:58:45.486Z,101012.73
2018-06-08T04:01:14.127Z,101012.43
2018-06-08T04:03:42.762Z,101016.19
2018-06-08T04:06:11.473Z,101017.84
2018-06-08T04:08:40.186Z,101011.91
2018-06-08T04:11:08.835Z,101014.99
2018-06-08T04:13:37.427Z,101017.09
2018-06-08T04:16:06.849Z,101019.50
2018-06-08T04:18:35.439Z,101019.80
2018-06-08T04:21:04.273Z,101025.04
2018-06-08T04:23:33.196Z,101025.59
2018-06-08T04:26:02.355Z,101025.04
2018-06-08T04:28:31.178Z,101028.95
2018-06-08T04:31:00.046Z,101026.69
2018-06-08T04:33:28.696Z,101020.75
2018-06-08T04:35:58.503Z,101022.78
2018-06-08T04:38:29.334Z,101021.73
2018-06-08T04:40:57.956Z,101021.23
2018-06-08T04:43:26.887Z,101016.73
2018-06-08T04:45:55.638Z,101025.20
2018-06-08T04:48:24.383Z,101021.43
2018-06-08T04:50:53.301Z,101024.33
2018-06-08T04:53:22.628Z,101021.62
2018-06-08T04:55:51.211Z,101021.09
2018-06-08T04:58:20.229Z,101019.55
2018-06-08T05:00:48.963Z,101022.93
2018-06-08T05:03:17.680Z,101019.73
2018-06-08T05:05:46.500Z,101023.53
2018-06-08T05:08:15.506Z,101020.03
2018-06-08T05:10:44.542Z,101017.84
2018-06-08T05:13:13.615Z,101019.05
2018-06-08T05:15:42.342Z,101022.28
2018-06-08T05:18:11.302Z,101021.98
2018-06-08T05:20:39.979Z,101016.37
2018-06-08T05:23:08.644Z,101010.34
2018-06-08T05:25:37.692Z,101014.54
2018-06-08T05:28:06.616Z,101019.77
2018-06-08T05:30:35.869Z,101023.45
2018-06-08T05:33:04.784Z,101022.00
2018-06-08T05:35:33.735Z,101022.66
2018-06-08T05:38:02.561Z,101030.07
2018-06-08T05:40:31.996Z,101028.78
2018-06-08T05:43:00.892Z,101033.15
2018-06-08T05:45:29.688Z,101021.05
2018-06-08T05:47:58.683Z,101021.80
2018-06-08T05:50:27.949Z,101023.72
2018-06-08T05:52:56.654Z,101018.16
2018-06-08T05:55:27.077Z,101018.28
2018-06-08T05:57:55.868Z,101021.05
2018-06-08T06:00:24.908Z,101012.46
2018-06-08T06:02:53.822Z,101016.89
2018-06-08T06:05:23.169Z,101021.94
2018-06-08T06:07:52.086Z,101024.44
2018-06-08T06:10:21.077Z,101029.13
2018-06-08T06:12:49.976Z,101028.06
2018-06-08T06:15:19.162Z,101029.78
2018-06-08T06:17:48.383Z,101021.80
2018-06-08T06:20:17.085Z,101029.26
2018-06-08T06:22:45.941Z,101025.38
2018-06-08T06:25:14.692Z,101024.61
2018-06-08T06:27:43.416Z,101030.59
2018-06-08T06:30:12.168Z,101034.78
2018-06-08T06:32:40.853Z,101028.44
2018-06-08T06:35:10.068Z,101032.38
2018-06-08T06:37:39.169Z,101035.11
2018-06-08T06:40:07.862Z,101030.42
2018-06-08T06:42:36.788Z,101031.50
2018-06-08T06:45:07.097Z,101026.14
2018-06-08T06:47:36.124Z,101028.08
2018-06-08T06:50:05.863Z,101031.30
2018-06-08T06:52:34.573Z,101020.74
2018-06-08T06:55:03.276Z,101023.81
2018-06-08T06:57:31.991Z,101023.55
2018-06-08T07:00:00.811Z,101014.85
2018-06-08T07:02:30.647Z,101021.06
2018-06-08T07:04:59.822Z,101017.66
2018-06-08T07:07:28.608Z,101017.76
2018-06-08T07:09:57.873Z,101011.28
2018-06-08T07:12:26.694Z,101019.48
2018-06-08T07:14:55.652Z,101015.64
2018-06-08T07:17:24.513Z,101018.30
2018-06-08T07:19:53.534Z,101015.19
2018-06-08T07:22:22.265Z,101012.14
2018-06-08T07:24:51.345Z,101009.38
2018-06-08T07:27:20.269Z,101007.70
2018-06-08T07:29:49.246Z,100998.08
2018-06-08T07:32:18.305Z,101002.24
2018-06-08T07:34:47.923Z,100996.72
2018-06-08T07:37:16.859Z,101002.73
2018-06-08T07:39:45.561Z,101002.41
2018-06-08T07:42:14.382Z,101000.37
2018-06-08T07:44:43.121Z,101007.80
2018-06-08T07:47:11.820Z,101011.16
2018-06-08T07:49:40.840Z,101014.66
2018-06-08T07:52:09.568Z,101014.31
2018-06-08T07:54:38.495Z,101016.52
2018-06-08T07:57:07.881Z,101014.25
2018-06-08T07:59:36.686Z,101009.91
2018-06-08T08:02:05.436Z,101015.88
2018-06-08T08:04:34.204Z,101013.11
2018-06-08T08:07:03.335Z,101012.27
2018-06-08T08:09:32.087Z,101006.41
2018-06-08T08:12:00.850Z,101007.96
2018-06-08T08:14:29.549Z,101004.84
2018-06-08T08:16:58.371Z,101010.12
2018-06-08T08:19:27.581Z,101005.63
2018-06-08T08:21:56.301Z,101007.20
2018-06-08T08:24:25.015Z,101013.88
2018-06-08T08:26:53.953Z,101017.24
2018-06-08T08:29:22.899Z,101006.30
2018-06-08T08:31:51.567Z,101012.16
2018-06-08T08:34:21.605Z,101011.17
2018-06-08T08:36:50.333Z,101014.45
2018-06-08T08:39:19.073Z,101009.20
2018-06-08T08:41:49.921Z,101012.31
2018-06-08T08:44:18.638Z,101012.81
2018-06-08T08:46:47.695Z,101006.50
2018-06-08T08:49:16.397Z,101012.12
2018-06-08T08:51:45.273Z,101020.88
2018-06-08T08:54:13.973Z,101019.95
2018-06-08T08:56:42.642Z,101018.41
2018-06-08T08:59:11.239Z,101020.63
2018-06-08T09:01:40.240Z,101017.28
2018-06-08T09:04:09.522Z,101015.88
2018-06-08T09:06:38.269Z,101021.42
2018-06-08T09:09:07.735Z,101018.41
2018-06-08T09:11:36.464Z,101012.66
2018-06-08T09:14:05.384Z,101010.47
2018-06-08T09:16:34.147Z,101009.23
2018-06-08T09:19:02.876Z,101019.50
2018-06-08T09:21:31.937Z,101022.22
2018-06-08T09:24:00.991Z,101018.70
2018-06-08T09:26:29.886Z,101014.04
2018-06-08T09:28:58.536Z,101016.92
2018-06-08T09:31:27.565Z,101011.54
2018-06-08T09:33:56.504Z,101012.56
2018-06-08T09:36:25.261Z,101022.86
2018-06-08T09:38:53.989Z,101018.69
2018-06-08T09:41:22.925Z,101010.02
2018-06-08T09:43:51.686Z,101009.70
2018-06-08T09:46:20.811Z,101009.70
2018-06-08T09:48:49.603Z,101007.05
2018-06-08T09:51:18.306Z,101002.39
2018-06-08T09:53:47.342Z,101004.61
2018-06-08T09:56:16.279Z,101000.24
2018-06-08T09:58:45.327Z,101002.52
2018-06-08T10:01:14.360Z,100999.84
2018-06-08T10:03:43.199Z,100992.65
2018-06-08T10:06:11.966Z,100992.05
2018-06-08T10:08:40.826Z,100992.33
2018-06-08T10:11:09.815Z,100996.55
2018-06-08T10:13:38.524Z,100986.67
2018-06-08T10:16:07.258Z,100980.41
2018-06-08T10:18:36.080Z,100985.56
2018-06-08T10:21:05.180Z,100974.12
2018-06-08T10:23:37.381Z,100984.66
2018-06-08T10:26:06.450Z,100983.11
2018-06-08T10:28:35.918Z,100978.45
2018-06-08T10:31:04.648Z,100979.63
2018-06-08T10:33:33.611Z,100977.12
2018-06-08T10:36:03.042Z,100977.78
2018-06-08T10:38:32.199Z,100981.28
2018-06-08T10:41:00.947Z,100970.67
2018-06-08T10:43:30.835Z,100968.86
2018-06-08T10:45:59.543Z,100964.53
2018-06-08T10:48:28.395Z,100971.55
2018-06-08T10:50:57.223Z,100971.00
2018-06-08T10:53:25.817Z,100976.43
2018-06-08T10:55:54.590Z,100961.36
2018-06-08T10:58:23.330Z,100963.64
2018-06-08T11:00:51.960Z,100958.66
2018-06-08T11:03:20.954Z,100970.98
2018-06-08T11:05:49.890Z,100965.58
2018-06-08T11:08:18.621Z,100963.84
2018-06-08T11:10:47.606Z,100957.16
2018-06-08T11:13:16.239Z,100954.03
2018-06-08T11:15:44.986Z,100943.05
2018-06-08T11:18:13.735Z,100945.49
2018-06-08T11:20:42.458Z,100942.03
2018-06-08T11:23:12.134Z,100933.34
2018-06-08T11:25:41.708Z,100938.72
2018-06-08T11:28:10.402Z,100941.11
2018-06-08T11:30:39.110Z,100935.46
2018-06-08T11:33:08.280Z,100937.52
2018-06-08T11:35:36.948Z,100929.66
2018-06-08T11:38:05.774Z,100922.30
2018-06-08T11:40:34.605Z,100916.56
2018-06-08T11:43:03.742Z,100922.84
2018-06-08T11:45:32.454Z,100912.98
2018-06-08T11:48:01.386Z,100915.34
2018-06-08T11:50:31.015Z,100911.43
2018-06-08T11:52:59.781Z,100920.61
2018-06-08T11:55:28.468Z,100910.36
2018-06-08T11:57:57.158Z,100911.55
2018-06-08T12:00:26.052Z,100912.81
2018-06-08T12:02:54.876Z,100895.80
2018-06-08T12:05:23.590Z,100891.37
2018-06-08T12:07:52.607Z,100885.73
2018-06-08T12:10:21.424Z,100886.12
2018-06-08T12:12:50.437Z,100886.86
2018-06-08T12:15:20.138Z,100884.71
2018-06-08T12:17:49.789Z,100875.33
2018-06-08T12:20:18.952Z,100881.50
2018-06-08T12:22:47.908Z,100882.00
2018-06-08T12:25:16.708Z,100879.23
2018-06-08T12:27:45.454Z,100882.39
2018-06-08T12:30:14.224Z,100877.89
2018-06-08T12:32:42.954Z,100872.06
2018-06-08T12:35:11.848Z,100878.30
2018-06-08T12:37:40.734Z,100874.13
2018-06-08T12:40:10.031Z,100868.01
2018-06-08T12:42:38.930Z,100870.09
2018-06-08T12:45:07.754Z,100863.92
2018-06-08T12:47:36.515Z,100859.56
2018-06-08T12:50:05.692Z,100857.53
2018-06-08T12:52:34.392Z,100851.54
2018-06-08T12:55:03.179Z,100841.90
2018-06-08T12:57:32.067Z,100837.98
2018-06-08T13:00:00.877Z,100838.69
2018-06-08T13:02:29.817Z,100835.03
2018-06-08T13:04:58.744Z,100832.13
2018-06-08T13:07:27.669Z,100827.52
2018-06-08T13:09:56.376Z,100829.05
2018-06-08T13:12:25.007Z,100834.42
2018-06-08T13:14:53.868Z,100838.95
2018-06-08T13:17:22.927Z,100829.71
2018-06-08T13:19:51.955Z,100822.36
2018-06-08T13:22:20.981Z,100821.62
2018-06-08T13:24:49.752Z,100815.74
2018-06-08T13:27:18.796Z,100814.55
2018-06-08T13:29:47.451Z,100815.09
2018-06-08T13:32:16.181Z,100819.08
2018-06-08T13:34:45.235Z,100810.08
2018-06-08T13:37:13.922Z,100806.52
2018-06-08T13:39:43.076Z,100799.45
2018-06-08T13:42:12.165Z,100797.70
2018-06-08T13:44:41.132Z,100806.80
2018-06-08T13:47:09.788Z,100801.83
2018-06-08T13:49:38.762Z,100794.84
2018-06-08T13:52:07.469Z,100793.95
2018-06-08T13:54:36.171Z,100796.83
2018-06-08T13:57:04.925Z,100796.15
2018-06-08T13:59:33.614Z,100796.59
2018-06-08T14:02:02.317Z,100787.73
2018-06-08T14:04:31.057Z,100788.38
2018-06-08T14:06:59.865Z,100786.95
2018-06-08T14:09:28.672Z,100788.64
2018-06-08T14:11:57.384Z,100785.71
2018-06-08T14:14:26.324Z,100780.97
2018-06-08T14:16:55.318Z,100785.48
2018-06-08T14:19:24.122Z,100781.43
2018-06-08T14:21:53.005Z,100771.18
2018-06-08T14:24:21.827Z,100766.39
2018-06-08T14:26:51.034Z,100772.45
2018-06-08T14:29:20.327Z,100773.71
2018-06-08T14:31:49.012Z,100776.95
2018-06-08T14:34:18.105Z,100780.75
2018-06-08T14:36:46.902Z,100776.07
2018-06-08T14:39:15.647Z,100774.89
2018-06-08T14:41:44.543Z,100769.78
2018-06-08T14:44:13.499Z,100763.30
2018-06-08T14:46:42.154Z,100757.75
2018-06-08T14:49:10.933Z,100757.14
2018-06-08T14:51:39.912Z,100759.45
2018-06-08T14:54:08.938Z,100755.87
2018-06-08T14:56:37.836Z,100753.54
2018-06-08T14:59:06.640Z,100754.38
2018-06-08T15:01:35.411Z,100754.03
2018-06-08T15:04:04.213Z,100750.52
2018-06-08T15:06:32.949Z,100745.36
2018-06-08T15:09:02.088Z,100746.13
2018-06-08T15:11:31.064Z,100743.83
2018-06-08T15:14:00.091Z,100743.66
2018-06-08T15:16:29.031Z,100742.39
2018-06-08T15:18:57.808Z,100744.28
2018-06-08T15:21:26.469Z,100739.89
2018-06-08T15:23:55.141Z,100739.74
2018-06-08T15:26:24.039Z,100745.91
2018-06-08T15:28:53.002Z,100742.81
2018-06-08T15:31:21.720Z,100745.00
2018-06-08T15:33:50.406Z,100742.39
2018-06-08T15:36:19.332Z,100737.20
2018-06-08T15:38:49.157Z,100736.40
2018-06-08T15:41:17.976Z,100730.14
2018-06-08T15:43:47.267Z,100732.91
2018-06-08T15:46:16.319Z,100733.78
2018-06-08T15:48:45.005Z,100733.23
2018-06-08T15:51:13.815Z,100730.86
2018-06-08T15:53:42.578Z,100730.48
2018-06-08T15:56:11.434Z,100728.70
2018-06-08T15:58:40.619Z,100719.36
2018-06-08T16:01:09.420Z,100724.05
2018-06-08T16:03:38.407Z,100711.59
2018-06-08T16:06:07.210Z,100712.84
2018-06-08T16:08:36.152Z,100711.11
2018-06-08T16:11:05.053Z,100703.19
2018-06-08T16:13:33.956Z,100703.09
2018-06-08T16:16:02.778Z,100704.69
2018-06-08T16:18:31.969Z,100705.59
2018-06-08T16:21:03.616Z,100708.54
2018-06-08T16:23:32.962Z,100709.04
2018-06-08T16:26:01.910Z,100706.17
2018-06-08T16:28:30.601Z,100715.91
2018-06-08T16:31:00.211Z,100709.59
2018-06-08T16:33:29.550Z,100707.58
2018-06-08T16:35:58.459Z,100704.52
2018-06-08T16:38:27.611Z,100697.52
2018-06-08T16:40:56.389Z,100702.89
2018-06-08T16:43:32.033Z,100702.66
2018-06-08T16:46:01.372Z,100700.95
2018-06-08T16:48:30.418Z,100705.78
2018-06-08T16:50:59.689Z,100695.78
2018-06-08T16:53:28.773Z,100703.05
2018-06-08T16:55:57.690Z,100702.72
2018-06-08T16:58:26.737Z,100698.59
2018-06-08T17:00:55.859Z,100695.93
2018-06-08T17:03:24.590Z,100694.07
2018-06-08T17:05:53.468Z,100684.10
2018-06-08T17:08:22.223Z,100694.67
2018-06-08T17:10:51.464Z,100698.02
2018-06-08T17:13:20.338Z,100700.00
2018-06-08T17:15:49.368Z,100701.84
2018-06-08T17:18:18.275Z,100701.59
2018-06-08T17:20:47.108Z,100703.22
2018-06-08T17:23:15.824Z,100703.27
2018-06-08T17:25:44.675Z,100698.52
2018-06-08T17:28:13.640Z,100701.64
2018-06-08T17:30:42.480Z,100711.27
2018-06-08T17:33:11.496Z,100707.44
2018-06-08T17:35:40.253Z,100706.37
2018-06-08T17:38:09.104Z,100704.25
2018-06-08T17:40:38.312Z,100705.96
2018-06-08T17:43:07.595Z,100702.73
2018-06-08T17:45:36.477Z,100712.39
2018-06-08T17:48:05.534Z,100717.77
2018-06-08T17:50:34.602Z,100718.41
2018-06-08T17:53:03.424Z,100725.68
2018-06-08T17:55:33.259Z,100722.16
2018-06-08T17:58:02.238Z,100726.91
2018-06-08T18:00:30.914Z,100723.97
2018-06-08T18:02:59.648Z,100726.22
2018-06-08T18:05:28.493Z,100733.09
2018-06-08T18:07:57.283Z,100730.94
2018-06-08T18:10:26.272Z,100731.03
2018-06-08T18:12:54.987Z,100735.19
2018-06-08T18:15:23.700Z,100737.73
2018-06-08T18:17:53.494Z,100736.95
2018-06-08T18:20:22.441Z,100740.84
2018-06-08T18:22:51.128Z,100737.38
2018-06-08T18:25:20.672Z,100737.21
2018-06-08T18:27:49.405Z,100743.64
2018-06-08T18:30:18.075Z,100747.83
2018-06-08T18:32:47.306Z,100754.16
2018-06-08T18:35:16.420Z,100755.01
2018-06-08T18:37:45.135Z,100757.28
2018-06-08T18:40:13.879Z,100754.57
2018-06-08T18:42:48.298Z,100754.37
2018-06-08T18:45:17.168Z,100759.63
2018-06-08T18:47:46.244Z,100760.78
2018-06-08T18:50:15.400Z,100758.91
2018-06-08T18:52:44.509Z,100759.79
2018-06-08T18:55:13.529Z,100758.47
2018-06-08T18:57:42.431Z,100759.08
2018-06-08T19:00:11.527Z,100757.47
2018-06-08T19:02:40.461Z,100759.48
2018-06-08T19:05:09.195Z,100758.41
2018-06-08T19:07:37.965Z,100763.41
2018-06-08T19:10:06.693Z,100760.45
2018-06-08T19:12:35.979Z,100764.58
2018-06-08T19:15:04.769Z,100761.86
2018-06-08T19:17:33.686Z,100766.81
2018-06-08T19:20:02.610Z,100772.91
2018-06-08T19:22:31.441Z,100774.85
2018-06-08T19:25:00.166Z,100770.23
2018-06-08T19:27:29.153Z,100771.36
2018-06-08T19:29:57.950Z,100774.39
2018-06-08T19:32:27.227Z,100780.78
2018-06-08T19:34:56.226Z,100783.31
2018-06-08T19:37:25.895Z,100784.97
2018-06-08T19:39:54.985Z,100786.09
2018-06-08T19:42:24.170Z,100791.91
2018-06-08T19:44:53.131Z,100790.29
2018-06-08T19:47:22.201Z,100786.77
2018-06-08T19:49:50.936Z,100796.72
2018-06-08T19:52:19.929Z,100799.48
2018-06-08T19:54:48.954Z,100804.42
2018-06-08T19:57:18.390Z,100807.76
2018-06-08T19:59:47.411Z,100813.23
2018-06-08T20:02:16.811Z,100810.27
2018-06-08T20:04:45.563Z,100809.75
2018-06-08T20:07:14.417Z,100814.72
2018-06-08T20:09:43.301Z,100819.93
2018-06-08T20:12:12.382Z,100814.45
2018-06-08T20:14:44.071Z,100814.23
2018-06-08T20:17:12.861Z,100818.91
2018-06-08T20:19:41.936Z,100817.55
2018-06-08T20:22:10.674Z,100817.89
2018-06-08T20:24:39.466Z,100818.75
2018-06-08T20:27:08.598Z,100819.30
2018-06-08T20:29:37.245Z,100816.58
2018-06-08T20:32:05.934Z,100814.11
2018-06-08T20:34:35.662Z,100819.87
2018-06-08T20:37:04.337Z,100813.34
2018-06-08T20:39:33.467Z,100813.62
2018-06-08T20:42:02.325Z,100824.07
2018-06-08T20:44:30.956Z,100823.54
2018-06-08T20:46:59.955Z,100832.89
2018-06-08T20:49:28.578Z,100825.52
2018-06-08T20:51:57.269Z,100825.29
2018-06-08T20:54:26.467Z,100822.83
2018-06-08T20:57:06.228Z,100822.02
2018-06-08T20:59:34.889Z,100818.73
2018-06-08T21:02:03.626Z,100816.58
2018-06-08T21:04:32.907Z,100816.86
2018-06-08T21:07:01.598Z,100816.35
2018-06-08T21:09:30.439Z,100816.90
2018-06-08T21:11:59.226Z,100812.84
2018-06-08T21:14:28.014Z,100812.84
2018-06-08T21:16:56.655Z,100804.64
2018-06-08T21:19:25.433Z,100804.95
2018-06-08T21:21:54.247Z,100807.14
2018-06-08T21:24:23.171Z,100807.96
2018-06-08T21:26:51.919Z,100810.73
2018-06-08T21:29:20.754Z,100809.91
2018-06-08T21:31:49.728Z,100819.77
2018-06-08T21:34:18.854Z,100815.15
2018-06-08T21:36:47.614Z,100825.00
2018-06-08T21:39:16.732Z,100823.39
2018-06-08T21:41:45.582Z,100820.11
2018-06-08T21:44:14.672Z,100813.55
2018-06-08T21:46:43.434Z,100819.62
2018-06-08T21:49:12.618Z,100817.16
2018-06-08T21:51:41.493Z,100820.43
2018-06-08T21:54:10.161Z,100814.17
2018-06-08T21:56:39.006Z,100818.00
2018-06-08T21:59:08.203Z,100814.72
2018-06-08T22:01:36.926Z,100810.91
2018-06-08T22:04:05.710Z,100815.02
2018-06-08T22:06:34.398Z,100813.92
2018-06-08T22:09:03.120Z,100814.74
2018-06-08T22:11:32.303Z,100812.85
2018-06-08T22:14:00.933Z,100809.57
2018-06-08T22:16:29.621Z,100810.66
2018-06-08T22:18:58.673Z,100810.13
2018-06-08T22:21:27.682Z,100815.34
2018-06-08T22:23:56.564Z,100818.62
2018-06-08T22:26:25.539Z,100812.63
2018-06-08T22:28:55.050Z,100809.07
2018-06-08T22:31:23.708Z,100807.96
2018-06-08T22:33:52.367Z,100808.23
2018-06-08T22:36:21.018Z,100811.22
2018-06-08T22:38:49.670Z,100809.31
2018-06-08T22:41:18.309Z,100804.41
2018-06-08T22:43:47.192Z,100801.70
2018-06-08T22:46:16.226Z,100801.42
2018-06-08T22:48:45.135Z,100801.42
2018-06-08T22:51:14.241Z,100796.49
2018-06-08T22:53:42.909Z,100789.68
2018-06-08T22:56:11.612Z,100791.88
2018-06-08T22:58:40.308Z,100784.77
2018-06-08T23:01:09.422Z,100786.95
2018-06-08T23:03:38.707Z,100781.77
2018-06-08T23:06:07.475Z,100781.77
2018-06-08T23:08:36.402Z,100786.42
2018-06-08T23:11:05.408Z,100795.42
2018-06-08T23:13:34.125Z,100793.52
2018-06-08T23:16:02.748Z,100793.23
2018-06-08T23:18:31.692Z,100791.86
2018-06-08T23:21:00.359Z,100795.40
2018-06-08T23:23:29.161Z,100783.36
2018-06-08T23:25:58.508Z,100788.56
2018-06-08T23:28:27.160Z,100791.57
2018-06-08T23:30:55.952Z,100785.27
2018-06-08T23:33:24.932Z,100787.17
2018-06-08T23:35:53.931Z,100791.00
2018-06-08T23:38:22.931Z,100786.64
2018-06-08T23:40:51.838Z,100796.98
2018-06-08T23:43:20.749Z,100795.09
2018-06-08T23:45:49.963Z,100793.16
2018-06-08T23:48:18.628Z,100800.80
2018-06-08T23:50:47.295Z,100796.70
2018-06-08T23:53:16.237Z,100788.23
2018-06-08T23:55:45.244Z,100792.34
2018-06-08T23:58:14.220Z,100791.52
